ASA67D PAKT-PASI
Flight info
| Callsign | ASA67D |
|---|---|
| Flight time | 0h 37m |
| Altitude | 26000 |
| Route | UDENE3 FLIPS |
| Aircraft | B737/M-SDE2E3FGHIRWXY/LB1 |
Departure
| Time | 2026-04-19 03:23 |
|---|---|
| Airport | Ketchikan International Airport (PAKT) |
Arrival
| Time | 2026-04-19 04:01 |
|---|---|
| Airport | Sitka Rocky Gutierrez Airport (PASI) |
| Time | Latitude | Longitude | Altitude | Speed | Heading |
|---|---|---|---|---|---|
| 2026-04-19 03:03 | 55.35662 | -131.71030 | 40 ft | 0 kts | 46° |
| 2026-04-19 03:15 | 55.35654 | -131.71043 | 41 ft | 4 kts | 47° |
| 2026-04-19 03:15 | 55.35636 | -131.71077 | 38 ft | 4 kts | 43° |
| 2026-04-19 03:16 | 55.35615 | -131.71107 | 41 ft | 4 kts | 28° |
| 2026-04-19 03:16 | 55.35591 | -131.71123 | 39 ft | 3 kts | 6° |
| 2026-04-19 03:16 | 55.35587 | -131.71124 | 40 ft | 1 kts | 4° |
| 2026-04-19 03:19 | 55.35589 | -131.71125 | 39 ft | 1 kts | 351° |
| 2026-04-19 03:19 | 55.35612 | -131.71153 | 39 ft | 7 kts | 315° |
| 2026-04-19 03:19 | 55.35661 | -131.71243 | 43 ft | 12 kts | 316° |
| 2026-04-19 03:19 | 55.35720 | -131.71343 | 49 ft | 12 kts | 316° |
| 2026-04-19 03:20 | 55.35778 | -131.71441 | 50 ft | 11 kts | 315° |
| 2026-04-19 03:20 | 55.35832 | -131.71541 | 58 ft | 11 kts | 313° |
| 2026-04-19 03:20 | 55.35883 | -131.71640 | 63 ft | 11 kts | 313° |
| 2026-04-19 03:20 | 55.35935 | -131.71732 | 69 ft | 10 kts | 315° |
| 2026-04-19 03:21 | 55.35984 | -131.71820 | 72 ft | 10 kts | 315° |
| 2026-04-19 03:21 | 55.36033 | -131.71907 | 84 ft | 10 kts | 315° |
| 2026-04-19 03:21 | 55.36081 | -131.71991 | 89 ft | 10 kts | 315° |
| 2026-04-19 03:21 | 55.36129 | -131.72088 | 93 ft | 13 kts | 310° |
| 2026-04-19 03:22 | 55.36187 | -131.72227 | 101 ft | 15 kts | 280° |
| 2026-04-19 03:22 | 55.36137 | -131.72360 | 100 ft | 6 kts | 187° |
| 2026-04-19 03:22 | 55.36118 | -131.72345 | 97 ft | 0 kts | 138° |
| 2026-04-19 03:23 | 55.36115 | -131.72339 | 98 ft | 6 kts | 138° |
| 2026-04-19 03:23 | 55.35880 | -131.71933 | 99 ft | 90 kts | 136° |
| 2026-04-19 03:23 | 55.35252 | -131.70855 | 160 ft | 154 kts | 135° |
| 2026-04-19 03:23 | 55.34498 | -131.69523 | 956 ft | 152 kts | 136° |
| 2026-04-19 03:24 | 55.33738 | -131.68195 | 1941 ft | 154 kts | 137° |
| 2026-04-19 03:24 | 55.32934 | -131.66796 | 2480 ft | 178 kts | 137° |
| 2026-04-19 03:24 | 55.31968 | -131.65167 | 2789 ft | 208 kts | 138° |
| 2026-04-19 03:24 | 55.30893 | -131.63364 | 3447 ft | 216 kts | 139° |
| 2026-04-19 03:25 | 55.29735 | -131.61685 | 4362 ft | 216 kts | 151° |
| 2026-04-19 03:25 | 55.28336 | -131.60845 | 5481 ft | 212 kts | 169° |
| 2026-04-19 03:25 | 55.26863 | -131.60716 | 6524 ft | 214 kts | 184° |
| 2026-04-19 03:25 | 55.25384 | -131.61363 | 7366 ft | 225 kts | 200° |
| 2026-04-19 03:26 | 55.23989 | -131.62719 | 8221 ft | 235 kts | 214° |
| 2026-04-19 03:26 | 55.22833 | -131.64798 | 9111 ft | 244 kts | 231° |
| 2026-04-19 03:26 | 55.22026 | -131.67456 | 10025 ft | 251 kts | 248° |
| 2026-04-19 03:26 | 55.21692 | -131.70493 | 10871 ft | 259 kts | 265° |
| 2026-04-19 03:27 | 55.21897 | -131.73625 | 11703 ft | 268 kts | 282° |
| 2026-04-19 03:27 | 55.22669 | -131.76648 | 12569 ft | 277 kts | 299° |
| 2026-04-19 03:27 | 55.23756 | -131.79559 | 13016 ft | 297 kts | 299° |
| 2026-04-19 03:27 | 55.24922 | -131.82756 | 13258 ft | 324 kts | 299° |
| 2026-04-19 03:28 | 55.26175 | -131.86229 | 13504 ft | 349 kts | 299° |
| 2026-04-19 03:28 | 55.27519 | -131.89863 | 14095 ft | 360 kts | 301° |
| 2026-04-19 03:28 | 55.28997 | -131.93468 | 14893 ft | 365 kts | 303° |
| 2026-04-19 03:28 | 55.30526 | -131.97043 | 15757 ft | 368 kts | 303° |
| 2026-04-19 03:29 | 55.32079 | -132.00646 | 16589 ft | 372 kts | 303° |
| 2026-04-19 03:29 | 55.33641 | -132.04283 | 17394 ft | 376 kts | 303° |
| 2026-04-19 03:29 | 55.35219 | -132.07984 | 18262 ft | 379 kts | 302° |
| 2026-04-19 03:29 | 55.36798 | -132.11711 | 19019 ft | 382 kts | 301° |
| 2026-04-19 03:30 | 55.38388 | -132.15482 | 19770 ft | 385 kts | 301° |
| 2026-04-19 03:30 | 55.39979 | -132.19271 | 20295 ft | 395 kts | 301° |
| 2026-04-19 03:30 | 55.41628 | -132.23214 | 20772 ft | 405 kts | 301° |
| 2026-04-19 03:30 | 55.43313 | -132.27249 | 21314 ft | 412 kts | 301° |
| 2026-04-19 03:31 | 55.45019 | -132.31335 | 21973 ft | 415 kts | 300° |
| 2026-04-19 03:31 | 55.46728 | -132.35428 | 22812 ft | 414 kts | 300° |
| 2026-04-19 03:31 | 55.48427 | -132.39500 | 23754 ft | 409 kts | 300° |
| 2026-04-19 03:31 | 55.50103 | -132.43523 | 24599 ft | 404 kts | 299° |
| 2026-04-19 03:32 | 55.51760 | -132.47513 | 25396 ft | 401 kts | 299° |
| 2026-04-19 03:32 | 55.53412 | -132.51506 | 25809 ft | 403 kts | 299° |
| 2026-04-19 03:32 | 55.55057 | -132.55492 | 25926 ft | 400 kts | 299° |
| 2026-04-19 03:32 | 55.56696 | -132.59467 | 25930 ft | 400 kts | 299° |
| 2026-04-19 03:33 | 55.58339 | -132.63460 | 25936 ft | 402 kts | 299° |
| 2026-04-19 03:33 | 55.59987 | -132.67471 | 25956 ft | 403 kts | 299° |
| 2026-04-19 03:33 | 55.61619 | -132.71447 | 25928 ft | 405 kts | 299° |
| 2026-04-19 03:33 | 55.63273 | -132.75482 | 25915 ft | 404 kts | 299° |
| 2026-04-19 03:34 | 55.64923 | -132.79510 | 25935 ft | 404 kts | 299° |
| 2026-04-19 03:34 | 55.66569 | -132.83535 | 25926 ft | 403 kts | 298° |
| 2026-04-19 03:34 | 55.68209 | -132.87555 | 25940 ft | 402 kts | 298° |
| 2026-04-19 03:34 | 55.69866 | -132.91560 | 25933 ft | 404 kts | 300° |
| 2026-04-19 03:35 | 55.71613 | -132.95461 | 25923 ft | 404 kts | 302° |
| 2026-04-19 03:35 | 55.73407 | -132.99303 | 25928 ft | 403 kts | 303° |
| 2026-04-19 03:35 | 55.75211 | -133.03127 | 25932 ft | 404 kts | 303° |
| 2026-04-19 03:35 | 55.76991 | -133.06911 | 25921 ft | 404 kts | 303° |
| 2026-04-19 03:36 | 55.78783 | -133.10745 | 25933 ft | 403 kts | 302° |
| 2026-04-19 03:36 | 55.80568 | -133.14586 | 25939 ft | 403 kts | 302° |
| 2026-04-19 03:36 | 55.82347 | -133.18437 | 25942 ft | 403 kts | 302° |
| 2026-04-19 03:36 | 55.84128 | -133.22309 | 25941 ft | 403 kts | 302° |
| 2026-04-19 03:37 | 55.85903 | -133.26178 | 25936 ft | 404 kts | 302° |
| 2026-04-19 03:37 | 55.87676 | -133.30051 | 25964 ft | 404 kts | 302° |
| 2026-04-19 03:37 | 55.89449 | -133.33932 | 25944 ft | 405 kts | 302° |
| 2026-04-19 03:37 | 55.91225 | -133.37827 | 25950 ft | 404 kts | 302° |
| 2026-04-19 03:38 | 55.92994 | -133.41709 | 25916 ft | 400 kts | 302° |
| 2026-04-19 03:38 | 55.94741 | -133.45542 | 25501 ft | 396 kts | 302° |
| 2026-04-19 03:38 | 55.96475 | -133.49356 | 24993 ft | 394 kts | 302° |
| 2026-04-19 03:38 | 55.98195 | -133.53146 | 24485 ft | 389 kts | 302° |
| 2026-04-19 03:39 | 55.99868 | -133.56841 | 23988 ft | 386 kts | 302° |
| 2026-04-19 03:39 | 56.01547 | -133.60556 | 23467 ft | 383 kts | 303° |
| 2026-04-19 03:39 | 56.03215 | -133.64256 | 22853 ft | 381 kts | 303° |
| 2026-04-19 03:39 | 56.04871 | -133.67932 | 22307 ft | 377 kts | 303° |
| 2026-04-19 03:40 | 56.06509 | -133.71574 | 21806 ft | 373 kts | 303° |
| 2026-04-19 03:40 | 56.08131 | -133.75185 | 21266 ft | 370 kts | 303° |
| 2026-04-19 03:40 | 56.09733 | -133.78756 | 20760 ft | 366 kts | 303° |
| 2026-04-19 03:40 | 56.11319 | -133.82298 | 20254 ft | 363 kts | 303° |
| 2026-04-19 03:41 | 56.12365 | -133.84635 | 19911 ft | 361 kts | 304° |
| 2026-04-19 03:41 | 56.14449 | -133.89302 | 19252 ft | 356 kts | 304° |
| 2026-04-19 03:41 | 56.15469 | -133.91590 | 18930 ft | 354 kts | 304° |
| 2026-04-19 03:41 | 56.17003 | -133.95034 | 18438 ft | 352 kts | 304° |
| 2026-04-19 03:42 | 56.18525 | -133.98455 | 17918 ft | 349 kts | 304° |
| 2026-04-19 03:42 | 56.20033 | -134.01852 | 17373 ft | 346 kts | 304° |
| 2026-04-19 03:42 | 56.21526 | -134.05216 | 16865 ft | 344 kts | 304° |
| 2026-04-19 03:42 | 56.23010 | -134.08566 | 16366 ft | 340 kts | 304° |
| 2026-04-19 03:43 | 56.24477 | -134.11880 | 15891 ft | 337 kts | 304° |
| 2026-04-19 03:43 | 56.25927 | -134.15162 | 15401 ft | 333 kts | 303° |
| 2026-04-19 03:43 | 56.27362 | -134.18418 | 14935 ft | 330 kts | 304° |
| 2026-04-19 03:43 | 56.28781 | -134.21637 | 14499 ft | 327 kts | 304° |
| 2026-04-19 03:44 | 56.30189 | -134.24837 | 14024 ft | 325 kts | 304° |
| 2026-04-19 03:44 | 56.31584 | -134.28009 | 13541 ft | 322 kts | 304° |
| 2026-04-19 03:44 | 56.32971 | -134.31171 | 13021 ft | 320 kts | 304° |
| 2026-04-19 03:44 | 56.34346 | -134.34308 | 12541 ft | 317 kts | 304° |
| 2026-04-19 03:45 | 56.35708 | -134.37420 | 12062 ft | 315 kts | 304° |
| 2026-04-19 03:45 | 56.37043 | -134.40474 | 11597 ft | 312 kts | 304° |
| 2026-04-19 03:45 | 56.38384 | -134.43546 | 11130 ft | 310 kts | 304° |
| 2026-04-19 03:45 | 56.39720 | -134.46611 | 10665 ft | 309 kts | 304° |
| 2026-04-19 03:46 | 56.41040 | -134.49640 | 10349 ft | 302 kts | 304° |
| 2026-04-19 03:46 | 56.42314 | -134.52563 | 10209 ft | 290 kts | 303° |
| 2026-04-19 03:46 | 56.43539 | -134.55377 | 10073 ft | 279 kts | 303° |
| 2026-04-19 03:46 | 56.44717 | -134.58089 | 9852 ft | 272 kts | 303° |
| 2026-04-19 03:47 | 56.45883 | -134.60782 | 9479 ft | 271 kts | 303° |
| 2026-04-19 03:47 | 56.47040 | -134.63460 | 9127 ft | 269 kts | 304° |
| 2026-04-19 03:47 | 56.48172 | -134.66083 | 8767 ft | 267 kts | 304° |
| 2026-04-19 03:47 | 56.49319 | -134.68741 | 8434 ft | 263 kts | 304° |
| 2026-04-19 03:48 | 56.50421 | -134.71312 | 8102 ft | 261 kts | 305° |
| 2026-04-19 03:48 | 56.51538 | -134.73882 | 7784 ft | 259 kts | 305° |
| 2026-04-19 03:48 | 56.52643 | -134.76452 | 7467 ft | 258 kts | 305° |
| 2026-04-19 03:48 | 56.53750 | -134.79027 | 7135 ft | 260 kts | 306° |
| 2026-04-19 03:49 | 56.54862 | -134.81612 | 6775 ft | 260 kts | 306° |
| 2026-04-19 03:49 | 56.55972 | -134.84189 | 6469 ft | 258 kts | 306° |
| 2026-04-19 03:49 | 56.57070 | -134.86754 | 6086 ft | 259 kts | 308° |
| 2026-04-19 03:49 | 56.58195 | -134.89289 | 6081 ft | 259 kts | 306° |
| 2026-04-19 03:50 | 56.59336 | -134.91872 | 5989 ft | 264 kts | 309° |
| 2026-04-19 03:50 | 56.60499 | -134.94475 | 5973 ft | 270 kts | 307° |
| 2026-04-19 03:50 | 56.61656 | -134.97160 | 6017 ft | 270 kts | 304° |
| 2026-04-19 03:50 | 56.62777 | -134.99912 | 5994 ft | 270 kts | 304° |
| 2026-04-19 03:51 | 56.63899 | -135.02637 | 5983 ft | 268 kts | 305° |
| 2026-04-19 03:51 | 56.65022 | -135.05339 | 5984 ft | 267 kts | 305° |
| 2026-04-19 03:51 | 56.66131 | -135.07985 | 6013 ft | 266 kts | 305° |
| 2026-04-19 03:51 | 56.67285 | -135.10667 | 5618 ft | 278 kts | 306° |
| 2026-04-19 03:52 | 56.68495 | -135.13509 | 4842 ft | 285 kts | 306° |
| 2026-04-19 03:52 | 56.69677 | -135.16327 | 4493 ft | 274 kts | 306° |
| 2026-04-19 03:52 | 56.70801 | -135.19015 | 4303 ft | 262 kts | 306° |
| 2026-04-19 03:52 | 56.71902 | -135.21638 | 4149 ft | 260 kts | 306° |
| 2026-04-19 03:53 | 56.73000 | -135.24254 | 4020 ft | 260 kts | 306° |
| 2026-04-19 03:53 | 56.74104 | -135.26879 | 3876 ft | 261 kts | 306° |
| 2026-04-19 03:53 | 56.75210 | -135.29496 | 3723 ft | 259 kts | 308° |
| 2026-04-19 03:53 | 56.76585 | -135.31439 | 3620 ft | 244 kts | 336° |
| 2026-04-19 03:54 | 56.78126 | -135.32459 | 3505 ft | 228 kts | 343° |
| 2026-04-19 03:54 | 56.79598 | -135.33271 | 3382 ft | 214 kts | 344° |
| 2026-04-19 03:54 | 56.80977 | -135.34034 | 3283 ft | 200 kts | 345° |
| 2026-04-19 03:54 | 56.82272 | -135.34757 | 3161 ft | 189 kts | 345° |
| 2026-04-19 03:55 | 56.83503 | -135.35456 | 3045 ft | 180 kts | 344° |
| 2026-04-19 03:55 | 56.84654 | -135.36114 | 2929 ft | 172 kts | 344° |
| 2026-04-19 03:55 | 56.85785 | -135.36767 | 2828 ft | 169 kts | 345° |
| 2026-04-19 03:55 | 56.86894 | -135.37406 | 2732 ft | 166 kts | 344° |
| 2026-04-19 03:56 | 56.88000 | -135.37983 | 2661 ft | 165 kts | 351° |
| 2026-04-19 03:56 | 56.89132 | -135.38319 | 2589 ft | 161 kts | 353° |
| 2026-04-19 03:56 | 56.90217 | -135.38614 | 2477 ft | 153 kts | 352° |
| 2026-04-19 03:56 | 56.91267 | -135.38901 | 2428 ft | 151 kts | 353° |
| 2026-04-19 03:57 | 56.92276 | -135.39181 | 2386 ft | 141 kts | 353° |
| 2026-04-19 03:57 | 56.93225 | -135.39446 | 2248 ft | 136 kts | 352° |
| 2026-04-19 03:57 | 56.94167 | -135.39709 | 2201 ft | 136 kts | 352° |
| 2026-04-19 03:57 | 56.95099 | -135.39594 | 1931 ft | 139 kts | 31° |
| 2026-04-19 03:58 | 56.95767 | -135.38375 | 1796 ft | 138 kts | 44° |
| 2026-04-19 03:58 | 56.96449 | -135.37163 | 1640 ft | 135 kts | 42° |
| 2026-04-19 03:58 | 56.97124 | -135.35971 | 1481 ft | 134 kts | 44° |
| 2026-04-19 03:58 | 56.97795 | -135.34789 | 1344 ft | 133 kts | 44° |
| 2026-04-19 03:59 | 56.98457 | -135.33616 | 1205 ft | 131 kts | 44° |
| 2026-04-19 03:59 | 56.99111 | -135.32460 | 1101 ft | 131 kts | 43° |
| 2026-04-19 03:59 | 56.99838 | -135.31445 | 987 ft | 131 kts | 28° |
| 2026-04-19 03:59 | 57.00712 | -135.31036 | 884 ft | 131 kts | 3° |
| 2026-04-19 04:00 | 57.01652 | -135.31256 | 753 ft | 143 kts | 349° |
| 2026-04-19 04:00 | 57.02529 | -135.32052 | 575 ft | 141 kts | 318° |
| 2026-04-19 04:00 | 57.03175 | -135.33403 | 326 ft | 141 kts | 316° |
| 2026-04-19 04:00 | 57.03853 | -135.34614 | 114 ft | 130 kts | 316° |
| 2026-04-19 04:01 | 57.04455 | -135.35700 | 34 ft | 103 kts | 316° |
| 2026-04-19 04:01 | 57.04925 | -135.36550 | 33 ft | 19 kts | 315° |
| 2026-04-19 04:01 | 57.05020 | -135.36722 | 34 ft | 19 kts | 315° |
| 2026-04-19 04:02 | 57.05116 | -135.36886 | 34 ft | 19 kts | 317° |
| 2026-04-19 04:02 | 57.05213 | -135.37054 | 34 ft | 19 kts | 314° |
| 2026-04-19 04:02 | 57.05303 | -135.37223 | 34 ft | 18 kts | 315° |
| 2026-04-19 04:02 | 57.05391 | -135.37161 | 34 ft | 15 kts | 82° |
| 2026-04-19 04:03 | 57.05335 | -135.37003 | 34 ft | 15 kts | 135° |
| 2026-04-19 04:03 | 57.05264 | -135.36874 | 33 ft | 14 kts | 135° |
| 2026-04-19 04:03 | 57.05216 | -135.36751 | 34 ft | 7 kts | 88° |
| 2026-04-19 04:03 | 57.05227 | -135.36666 | 32 ft | 7 kts | 76° |
| 2026-04-19 04:04 | 57.05234 | -135.36609 | 34 ft | 2 kts | 76° |
| 2026-04-19 04:04 | 57.05235 | -135.36606 | 34 ft | 0 kts | 76° |